createdAt,value
2022-12-23T00:01:37.546Z,97698.63
2022-12-23T00:04:07.450Z,97704.28
2022-12-23T00:06:34.358Z,97705.00
2022-12-23T00:09:10.579Z,97702.97
2022-12-23T00:12:01.987Z,97703.97
2022-12-23T00:14:48.542Z,97698.41
2022-12-23T00:17:22.685Z,97702.28
2022-12-23T00:19:57.126Z,97692.63
2022-12-23T00:22:44.883Z,97688.16
2022-12-23T00:25:12.833Z,97691.00
2022-12-23T00:27:39.658Z,97693.66
2022-12-23T00:30:09.536Z,97686.31
2022-12-23T00:32:36.571Z,97687.91
2022-12-23T00:35:03.581Z,97686.66
2022-12-23T00:37:31.256Z,97689.47
2022-12-23T00:40:16.359Z,97679.56
2022-12-23T00:42:56.434Z,97678.69
2022-12-23T00:45:23.047Z,97672.91
2022-12-23T00:48:08.227Z,97676.31
2022-12-23T00:50:39.293Z,97675.19
2022-12-23T00:53:06.243Z,97672.53
2022-12-23T00:55:32.737Z,97672.19
2022-12-23T00:57:59.281Z,97668.03
2022-12-23T01:00:44.352Z,97671.84
2022-12-23T01:03:31.750Z,97673.22
2022-12-23T01:06:02.613Z,97665.91
2022-12-23T01:08:31.132Z,97658.38
2022-12-23T01:11:02.349Z,97664.03
2022-12-23T01:13:29.063Z,97666.28
2022-12-23T01:16:17.095Z,97660.25
2022-12-23T01:18:44.311Z,97662.94
2022-12-23T01:21:11.348Z,97660.25
2022-12-23T01:23:38.269Z,97663.06
2022-12-23T01:28:34.325Z,97662.63
2022-12-23T01:31:03.578Z,97665.75
2022-12-23T01:33:32.617Z,97661.16
2022-12-23T01:36:04.018Z,97668.13
2022-12-23T01:38:33.393Z,97663.16
2022-12-23T01:41:01.000Z,97667.81
2022-12-23T01:43:55.725Z,97661.59
2022-12-23T01:46:23.011Z,97644.22
2022-12-23T01:49:02.766Z,97649.63
2022-12-23T01:51:32.900Z,97644.97
2022-12-23T01:54:01.960Z,97648.91
2022-12-23T01:56:38.249Z,97649.19
2022-12-23T01:59:36.313Z,97647.72
2022-12-23T02:02:22.163Z,97632.19
2022-12-23T02:04:51.650Z,97637.91
2022-12-23T02:07:41.361Z,97639.44
2022-12-23T02:10:09.393Z,97644.81
2022-12-23T02:12:46.773Z,97647.44
2022-12-23T02:15:37.616Z,97653.28
2022-12-23T02:18:26.469Z,97661.09
2022-12-23T02:21:18.481Z,97657.38
2022-12-23T02:24:10.231Z,97655.16
2022-12-23T02:27:08.832Z,97663.19
2022-12-23T02:29:57.681Z,97666.66
2022-12-23T02:33:01.218Z,97668.59
2022-12-23T02:35:31.917Z,97665.75
2022-12-23T02:38:29.770Z,97664.19
2022-12-23T02:41:12.198Z,97665.69
2022-12-23T02:44:05.186Z,97665.47
2022-12-23T02:46:50.594Z,97662.38
2022-12-23T02:49:35.758Z,97662.06
2022-12-23T02:52:08.026Z,97660.63
2022-12-23T02:54:42.518Z,97661.19
2022-12-23T02:57:13.459Z,97650.00
2022-12-23T02:59:46.318Z,97656.47
2022-12-23T03:02:25.140Z,97651.72
2022-12-23T03:04:54.052Z,97650.72
2022-12-23T03:07:39.530Z,97655.38
2022-12-23T03:10:23.987Z,97664.44
2022-12-23T03:13:21.824Z,97651.69
2022-12-23T03:16:10.007Z,97648.59
2022-12-23T03:18:42.124Z,97659.31
2022-12-23T03:21:24.951Z,97657.19
2022-12-23T03:24:02.529Z,97657.50
2022-12-23T03:26:34.296Z,97654.59
2022-12-23T03:29:12.368Z,97658.38
2022-12-23T03:31:41.190Z,97651.88
2022-12-23T03:34:21.848Z,97656.72
2022-12-23T03:36:58.246Z,97663.53
2022-12-23T03:39:33.270Z,97655.44
2022-12-23T03:42:06.235Z,97659.34
2022-12-23T03:44:40.317Z,97655.09
2022-12-23T03:47:12.662Z,97660.00
2022-12-23T03:49:44.823Z,97667.34
2022-12-23T03:52:21.180Z,97662.97
2022-12-23T03:54:58.074Z,97669.63
2022-12-23T03:57:51.707Z,97668.78
2022-12-23T04:00:18.648Z,97673.50
2022-12-23T04:03:24.856Z,97672.94
2022-12-23T04:05:58.279Z,97673.75
2022-12-23T04:08:36.382Z,97678.13
2022-12-23T04:11:04.045Z,97686.47
2022-12-23T04:13:31.872Z,97677.06
2022-12-23T04:16:00.233Z,97684.72
2022-12-23T04:18:28.278Z,97684.53
2022-12-23T04:20:57.761Z,97686.69
2022-12-23T04:23:24.687Z,97690.84
2022-12-23T04:25:54.418Z,97698.50
2022-12-23T04:28:21.091Z,97690.47
2022-12-23T04:30:47.803Z,97691.53
2022-12-23T04:33:14.544Z,97696.50
2022-12-23T04:35:41.255Z,97691.69
2022-12-23T04:38:08.161Z,97687.59
2022-12-23T04:40:34.920Z,97699.81
2022-12-23T04:43:01.618Z,97699.72
2022-12-23T04:45:28.336Z,97695.75
2022-12-23T04:47:55.409Z,97703.81
2022-12-23T04:50:22.130Z,97712.25
2022-12-23T04:52:49.079Z,97710.00
2022-12-23T04:55:16.037Z,97717.91
2022-12-23T04:57:42.834Z,97715.09
2022-12-23T05:00:11.843Z,97728.56
2022-12-23T05:02:41.229Z,97728.75
2022-12-23T05:05:08.506Z,97736.91
2022-12-23T05:07:35.556Z,97731.78
2022-12-23T05:10:02.539Z,97729.38
2022-12-23T05:12:34.407Z,97728.56
2022-12-23T05:15:01.658Z,97734.63
2022-12-23T05:17:28.614Z,97745.06
2022-12-23T05:19:55.222Z,97741.50
2022-12-23T05:22:21.900Z,97736.19
2022-12-23T05:24:48.727Z,97747.72
2022-12-23T05:27:15.519Z,97749.22
2022-12-23T05:29:42.624Z,97749.38
2022-12-23T05:32:09.475Z,97748.13
2022-12-23T05:34:36.323Z,97754.34
2022-12-23T05:37:02.972Z,97755.06
2022-12-23T05:39:29.553Z,97757.38
2022-12-23T05:41:56.096Z,97757.09
2022-12-23T05:44:22.800Z,97757.09
2022-12-23T05:46:49.449Z,97759.97
2022-12-23T05:49:16.308Z,97751.34
2022-12-23T05:51:42.858Z,97764.13
2022-12-23T05:54:09.458Z,97770.44
2022-12-23T05:56:36.008Z,97767.59
2022-12-23T05:59:03.926Z,97764.50
2022-12-23T06:01:30.533Z,97772.09
2022-12-23T06:03:57.248Z,97771.63
2022-12-23T06:06:23.974Z,97775.00
2022-12-23T06:08:55.759Z,97788.28
2022-12-23T06:11:25.892Z,97789.28
2022-12-23T06:13:52.761Z,97795.31
2022-12-23T06:16:19.579Z,97797.34
2022-12-23T06:18:46.251Z,97801.47
2022-12-23T06:21:12.849Z,97800.66
2022-12-23T06:23:39.749Z,97801.84
2022-12-23T06:26:06.364Z,97802.31
2022-12-23T06:28:33.034Z,97803.91
2022-12-23T06:30:59.631Z,97802.91
2022-12-23T06:33:26.309Z,97801.06
2022-12-23T06:35:52.945Z,97819.16
2022-12-23T06:38:19.652Z,97817.81
2022-12-23T06:40:46.326Z,97825.31
2022-12-23T06:43:13.537Z,97823.78
2022-12-23T06:45:40.572Z,97815.75
2022-12-23T06:48:07.753Z,97818.03
2022-12-23T06:50:34.327Z,97830.50
2022-12-23T06:53:00.838Z,97831.38
2022-12-23T06:55:27.470Z,97834.47
2022-12-23T06:57:54.278Z,97838.97
2022-12-23T07:00:22.411Z,97848.69
2022-12-23T07:02:49.247Z,97846.00
2022-12-23T07:05:17.071Z,97838.91
2022-12-23T07:07:47.139Z,97834.19
2022-12-23T07:10:22.481Z,97836.22
2022-12-23T07:12:55.679Z,97840.88
2022-12-23T07:15:27.767Z,97852.78
2022-12-23T07:18:01.454Z,97860.06
2022-12-23T07:20:47.354Z,97854.25
2022-12-23T07:23:22.821Z,97849.03
2022-12-23T07:26:00.650Z,97865.38
2022-12-23T07:28:27.600Z,97875.78
2022-12-23T07:31:07.060Z,97884.84
2022-12-23T07:33:38.105Z,97877.13
2022-12-23T07:36:05.428Z,97881.22
2022-12-23T07:38:38.481Z,97883.44
2022-12-23T07:41:14.499Z,97889.94
2022-12-23T07:43:44.648Z,97887.56
2022-12-23T07:46:11.875Z,97891.25
2022-12-23T07:48:49.480Z,97886.94
2022-12-23T07:54:06.782Z,97889.69
2022-12-23T07:56:38.706Z,97891.31
2022-12-23T07:59:09.031Z,97898.34
2022-12-23T08:01:40.660Z,97896.31
2022-12-23T08:04:07.621Z,97885.31
2022-12-23T08:06:42.301Z,97880.91
2022-12-23T08:09:18.862Z,97880.19
2022-12-23T08:11:50.018Z,97870.69
2022-12-23T08:14:17.733Z,97877.00
2022-12-23T08:16:49.024Z,97880.94
2022-12-23T08:19:16.726Z,97877.38
2022-12-23T08:21:47.078Z,97867.63
2022-12-23T08:24:20.449Z,97872.78
2022-12-23T08:35:19.532Z,97907.84
2022-12-23T08:37:57.790Z,97912.78
2022-12-23T08:40:31.962Z,97922.91
2022-12-23T08:43:03.196Z,97930.81
2022-12-23T08:45:48.541Z,97930.63
2022-12-23T08:48:20.085Z,97940.91
2022-12-23T08:50:52.982Z,97949.53
2022-12-23T08:56:28.497Z,97936.91
2022-12-23T08:59:05.540Z,97941.38
2022-12-23T09:04:21.338Z,97943.28
2022-12-23T09:07:00.280Z,97933.97
2022-12-23T09:09:30.501Z,97938.41
2022-12-23T09:22:57.581Z,97934.50
2022-12-23T09:25:30.340Z,97929.50
2022-12-23T09:27:57.495Z,97937.63
2022-12-23T09:30:24.339Z,97923.53
2022-12-23T09:32:51.412Z,97928.25
2022-12-23T09:35:18.201Z,97924.06
2022-12-23T09:37:44.906Z,97917.81
2022-12-23T09:40:20.030Z,97920.06
2022-12-23T09:43:19.272Z,97914.78
2022-12-23T09:46:24.265Z,97905.41
2022-12-23T09:49:11.828Z,97905.25
2022-12-23T09:51:39.094Z,97894.88
2022-12-23T09:54:18.445Z,97898.78
2022-12-23T09:56:48.207Z,97899.31
2022-12-23T09:59:30.141Z,97897.50
2022-12-23T10:02:28.809Z,97907.13
2022-12-23T10:05:18.410Z,97905.22
2022-12-23T10:08:05.709Z,97906.69
2022-12-23T10:10:39.625Z,97913.72
2022-12-23T10:13:11.525Z,97926.50
2022-12-23T10:15:43.086Z,97922.94
2022-12-23T10:18:23.608Z,97931.72
2022-12-23T10:21:05.427Z,97930.94
2022-12-23T10:23:37.909Z,97920.75
2022-12-23T10:26:17.265Z,97919.97
2022-12-23T10:28:44.204Z,97908.81
2022-12-23T10:31:39.392Z,97908.66
2022-12-23T10:34:21.026Z,97903.56
2022-12-23T10:37:03.247Z,97898.84
2022-12-23T10:39:42.469Z,97893.19
2022-12-23T10:42:22.960Z,97894.59
2022-12-23T10:45:12.293Z,97903.22
2022-12-23T10:48:11.978Z,97903.75
2022-12-23T10:50:51.010Z,97903.31
2022-12-23T10:53:46.463Z,97910.34
2022-12-23T10:56:14.032Z,97905.53
2022-12-23T10:58:49.701Z,97905.78
2022-12-23T11:01:26.245Z,97900.41
2022-12-23T11:04:14.641Z,97895.56
2022-12-23T11:06:46.533Z,97891.63
2022-12-23T11:09:18.005Z,97895.84
2022-12-23T11:12:11.262Z,97887.72
2022-12-23T11:14:41.757Z,97880.84
2022-12-23T11:17:21.414Z,97873.25
2022-12-23T11:20:08.593Z,97866.44
2022-12-23T11:22:35.167Z,97875.03
2022-12-23T11:25:40.537Z,97868.03
2022-12-23T11:28:13.925Z,97863.13
2022-12-23T11:31:08.607Z,97861.88
2022-12-23T11:33:45.769Z,97868.13
2022-12-23T11:36:12.482Z,97857.13
2022-12-23T11:38:50.767Z,97845.06
2022-12-23T11:41:23.835Z,97845.63
2022-12-23T11:44:04.208Z,97847.34
2022-12-23T11:46:33.578Z,97844.56
2022-12-23T11:49:33.553Z,97833.84
2022-12-23T11:52:11.783Z,97836.72
2022-12-23T11:54:39.492Z,97824.38
2022-12-23T12:00:07.589Z,97812.03
2022-12-23T12:02:36.763Z,97817.22
2022-12-23T12:05:17.727Z,97821.31
2022-12-23T12:07:48.542Z,97807.69
2022-12-23T12:10:22.525Z,97814.97
2022-12-23T12:12:55.056Z,97804.97
2022-12-23T12:15:38.794Z,97802.22
2022-12-23T12:18:10.974Z,97802.25
2022-12-23T12:20:53.307Z,97804.66
2022-12-23T12:23:30.034Z,97791.38
2022-12-23T12:26:13.749Z,97793.19
2022-12-23T12:28:44.148Z,97792.84
2022-12-23T12:31:28.439Z,97786.88
2022-12-23T12:34:35.945Z,97783.75
2022-12-23T12:37:29.671Z,97777.47
2022-12-23T12:40:08.199Z,97777.88
2022-12-23T12:42:42.895Z,97771.81
2022-12-23T12:45:30.754Z,97762.44
2022-12-23T12:48:35.048Z,97766.19
2022-12-23T12:51:09.172Z,97755.53
2022-12-23T12:53:39.638Z,97757.88
2022-12-23T12:56:24.711Z,97745.13
2022-12-23T12:58:54.627Z,97750.94
2022-12-23T13:01:47.551Z,97757.19
2022-12-23T13:04:29.220Z,97767.34
2022-12-23T13:07:04.863Z,97764.69
2022-12-23T13:09:56.240Z,97758.13
2022-12-23T13:12:36.432Z,97750.88
2022-12-23T13:15:19.669Z,97746.44
2022-12-23T13:18:05.053Z,97743.09
2022-12-23T13:20:48.513Z,97741.28
2022-12-23T13:23:43.032Z,97734.50
2022-12-23T13:26:24.882Z,97725.59
2022-12-23T13:28:59.943Z,97712.53
2022-12-23T13:31:46.569Z,97702.88
2022-12-23T13:34:41.223Z,97697.09
2022-12-23T13:37:22.497Z,97704.38
2022-12-23T13:40:03.473Z,97701.94
2022-12-23T13:42:39.631Z,97692.22
2022-12-23T13:45:15.620Z,97685.94
2022-12-23T13:47:57.173Z,97688.53
2022-12-23T13:50:45.817Z,97677.34
2022-12-23T13:53:47.693Z,97674.31
2022-12-23T13:56:16.061Z,97661.78
2022-12-23T13:58:47.127Z,97658.38
2022-12-23T14:01:16.768Z,97662.81
2022-12-23T14:03:44.624Z,97654.44
2022-12-23T14:06:26.495Z,97663.91
2022-12-23T14:08:55.272Z,97654.75
2022-12-23T14:11:29.472Z,97646.44
2022-12-23T14:14:00.731Z,97640.91
2022-12-23T14:16:45.962Z,97649.53
2022-12-23T14:19:32.780Z,97642.44
2022-12-23T14:22:38.659Z,97632.78
2022-12-23T14:25:15.623Z,97640.09
2022-12-23T14:28:10.078Z,97633.56
2022-12-23T14:30:47.766Z,97623.13
2022-12-23T14:33:26.913Z,97622.06
2022-12-23T14:36:34.530Z,97623.09
2022-12-23T14:39:14.284Z,97616.31
2022-12-23T14:42:06.482Z,97611.34
2022-12-23T14:44:41.228Z,97608.75
2022-12-23T14:47:40.501Z,97606.13
2022-12-23T14:50:43.166Z,97589.13
2022-12-23T14:53:29.999Z,97596.97
2022-12-23T14:56:23.585Z,97587.06
2022-12-23T14:59:04.830Z,97578.72
2022-12-23T15:01:51.325Z,97569.56
2022-12-23T15:04:47.148Z,97576.09
2022-12-23T15:07:23.013Z,97568.00
2022-12-23T15:10:01.435Z,97559.91
2022-12-23T15:12:33.201Z,97559.91
2022-12-23T15:15:05.815Z,97573.72
2022-12-23T15:17:35.187Z,97554.94
2022-12-23T15:20:11.191Z,97549.72
2022-12-23T15:22:39.680Z,97544.47
2022-12-23T15:25:23.205Z,97541.34
2022-12-23T15:27:53.470Z,97551.78
2022-12-23T15:30:26.789Z,97540.53
2022-12-23T15:33:01.646Z,97544.97
2022-12-23T15:35:32.281Z,97541.31
2022-12-23T15:38:00.829Z,97540.25
2022-12-23T15:40:36.166Z,97560.63
2022-12-23T15:43:25.367Z,97550.47
2022-12-23T15:45:53.714Z,97546.00
2022-12-23T15:48:29.812Z,97544.69
2022-12-23T15:51:02.690Z,97546.50
2022-12-23T15:53:36.931Z,97542.63
2022-12-23T15:56:22.541Z,97535.31
2022-12-23T15:58:50.655Z,97525.66
2022-12-23T16:01:20.076Z,97524.34
2022-12-23T16:03:53.266Z,97527.75
2022-12-23T16:06:25.302Z,97522.75
2022-12-23T16:09:00.173Z,97521.22
2022-12-23T16:11:51.781Z,97515.22
2022-12-23T16:14:25.292Z,97506.06
2022-12-23T16:16:52.955Z,97514.19
2022-12-23T16:19:41.860Z,97485.41
2022-12-23T16:22:34.291Z,97492.19
2022-12-23T16:25:09.744Z,97486.47
2022-12-23T16:27:46.520Z,97486.19
2022-12-23T16:30:19.841Z,97502.38
2022-12-23T16:32:55.228Z,97485.16
2022-12-23T16:35:45.016Z,97468.94
2022-12-23T16:38:20.561Z,97477.84
2022-12-23T16:40:50.705Z,97467.38
2022-12-23T16:43:18.648Z,97450.66
2022-12-23T16:45:47.384Z,97462.97
2022-12-23T16:48:18.046Z,97473.41
2022-12-23T16:50:46.771Z,97461.59
2022-12-23T16:53:14.840Z,97455.91
2022-12-23T16:55:52.505Z,97454.84
2022-12-23T16:58:24.008Z,97461.38
2022-12-23T17:00:51.788Z,97465.03
2022-12-23T17:03:20.409Z,97467.13
2022-12-23T17:05:48.366Z,97464.00
2022-12-23T17:08:15.300Z,97456.91
2022-12-23T17:10:45.894Z,97455.88
2022-12-23T17:13:15.844Z,97462.16
2022-12-23T17:15:42.662Z,97455.66
2022-12-23T17:18:32.215Z,97465.56
2022-12-23T17:21:00.137Z,97452.25
2022-12-23T17:23:37.660Z,97450.41
2022-12-23T17:26:04.387Z,97450.94
2022-12-23T17:28:33.129Z,97448.56
2022-12-23T17:31:00.739Z,97454.59
2022-12-23T17:33:31.455Z,97460.09
2022-12-23T17:35:58.504Z,97459.56
2022-12-23T17:38:29.631Z,97459.56
2022-12-23T17:41:00.691Z,97458.50
2022-12-23T17:43:30.800Z,97466.63
2022-12-23T17:45:57.754Z,97473.44
2022-12-23T17:48:31.148Z,97479.97
2022-12-23T17:50:58.222Z,97474.47
2022-12-23T17:53:24.893Z,97461.94
2022-12-23T17:55:51.406Z,97475.75
2022-12-23T17:58:17.997Z,97470.28
2022-12-23T18:00:44.676Z,97473.16
2022-12-23T18:03:23.470Z,97477.09
2022-12-23T18:05:52.946Z,97479.97
2022-12-23T18:08:23.901Z,97481.53
2022-12-23T18:10:50.536Z,97481.00
2022-12-23T18:13:19.452Z,97479.44
2022-12-23T18:15:46.491Z,97483.63
2022-12-23T18:18:26.484Z,97490.69
2022-12-23T18:20:58.274Z,97492.00
2022-12-23T18:23:27.732Z,97489.88
2022-12-23T18:25:54.966Z,97486.75
2022-12-23T18:28:22.123Z,97494.63
2022-12-23T18:30:49.898Z,97486.75
2022-12-23T18:33:16.765Z,97495.66
2022-12-23T18:35:46.195Z,97503.25
2022-12-23T18:38:13.429Z,97486.22
2022-12-23T18:40:41.044Z,97487.56
2022-12-23T18:43:18.180Z,97483.06
2022-12-23T18:45:49.246Z,97490.16
2022-12-23T18:48:19.118Z,97487.81
2022-12-23T18:50:46.726Z,97489.09
2022-12-23T18:53:23.896Z,97491.22
2022-12-23T18:55:52.052Z,97506.38
2022-12-23T18:58:19.276Z,97512.66
2022-12-23T19:00:46.529Z,97506.91
2022-12-23T19:03:31.672Z,97518.97
2022-12-23T19:06:06.376Z,97508.25
2022-12-23T19:08:34.383Z,97525.25
2022-12-23T19:11:01.079Z,97512.94
2022-12-23T19:13:28.244Z,97516.34
2022-12-23T19:15:55.116Z,97520.25
2022-12-23T19:18:22.465Z,97521.53
2022-12-23T19:20:49.781Z,97514.47
2022-12-23T19:23:18.105Z,97524.69
2022-12-23T19:25:52.466Z,97527.56
2022-12-23T19:28:21.987Z,97531.75
2022-12-23T19:30:49.128Z,97543.00
2022-12-23T19:33:16.039Z,97540.63
2022-12-23T19:35:43.122Z,97561.06
2022-12-23T19:38:10.003Z,97577.06
2022-12-23T19:40:36.673Z,97571.06
2022-12-23T19:43:03.994Z,97576.56
2022-12-23T19:45:30.589Z,97579.44
2022-12-23T19:47:57.106Z,97583.34
2022-12-23T19:50:23.871Z,97603.78
2022-12-23T19:52:52.072Z,97567.38
2022-12-23T19:55:18.886Z,97578.66
2022-12-23T19:57:51.244Z,97578.09
2022-12-23T20:00:23.344Z,97580.72
2022-12-23T20:02:56.656Z,97606.91
2022-12-23T20:05:26.189Z,97608.22
2022-12-23T20:07:55.796Z,97613.75
2022-12-23T20:10:22.626Z,97626.81
2022-12-23T20:12:49.926Z,97615.81
2022-12-23T20:15:17.043Z,97621.03
2022-12-23T20:17:44.425Z,97622.88
2022-12-23T20:20:12.607Z,97627.31
2022-12-23T20:22:40.251Z,97628.34
2022-12-23T20:25:08.114Z,97629.94
2022-12-23T20:27:39.068Z,97627.56
2022-12-23T20:30:08.861Z,97628.88
2022-12-23T20:32:40.038Z,97627.03
2022-12-23T20:35:07.758Z,97629.94
2022-12-23T20:37:40.833Z,97636.75
2022-12-23T20:40:09.971Z,97630.97
2022-12-23T20:42:39.825Z,97644.59
2022-12-23T20:45:07.013Z,97645.88
2022-12-23T20:47:34.092Z,97651.91
2022-12-23T20:50:01.801Z,97651.38
2022-12-23T20:52:33.138Z,97638.56
2022-12-23T20:55:01.835Z,97635.16
2022-12-23T20:57:29.179Z,97630.69
2022-12-23T20:59:55.860Z,97628.59
2022-12-23T21:02:30.970Z,97637.75
2022-12-23T21:05:05.707Z,97632.25
2022-12-23T21:07:47.264Z,97635.41
2022-12-23T21:10:22.795Z,97634.88
2022-12-23T21:15:39.238Z,97634.63
2022-12-23T21:21:06.309Z,97663.75
2022-12-23T21:23:38.989Z,97670.56
2022-12-23T21:26:19.697Z,97679.41
2022-12-23T21:34:21.473Z,97712.66
2022-12-23T21:36:54.298Z,97695.66
2022-12-23T21:39:22.236Z,97684.91
2022-12-23T21:41:53.341Z,97693.53
2022-12-23T21:44:21.135Z,97705.88
2022-12-23T21:46:58.581Z,97711.88
2022-12-23T21:49:30.659Z,97722.59
2022-12-23T21:52:03.958Z,97741.19
2022-12-23T21:54:47.899Z,97748.78
2022-12-23T21:57:25.849Z,97756.38
2022-12-23T21:59:53.690Z,97752.44
2022-12-23T22:02:35.868Z,97764.47
2022-12-23T22:05:05.932Z,97751.59
2022-12-23T22:07:41.506Z,97735.63
2022-12-23T22:10:09.359Z,97741.13
2022-12-23T22:12:42.260Z,97757.56
2022-12-23T22:15:11.677Z,97753.09
2022-12-23T22:17:38.876Z,97775.34
2022-12-23T22:20:06.323Z,97778.19
2022-12-23T22:22:32.994Z,97797.00
2022-12-23T22:25:03.689Z,97796.97
2022-12-23T22:27:30.946Z,97786.19
2022-12-23T22:29:58.003Z,97779.38
2022-12-23T22:32:24.952Z,97779.56
2022-12-23T22:34:52.007Z,97781.91
2022-12-23T22:37:18.835Z,97790.28
2022-12-23T22:39:49.548Z,97794.19
2022-12-23T22:42:24.867Z,97808.50
2022-12-23T22:44:51.775Z,97807.44
2022-12-23T22:47:18.842Z,97816.84
2022-12-23T22:49:49.203Z,97815.78
2022-12-23T22:52:19.640Z,97823.06
2022-12-23T22:54:46.663Z,97827.22
2022-12-23T22:57:13.875Z,97813.34
2022-12-23T22:59:40.848Z,97823.78
2022-12-23T23:02:07.791Z,97827.69
2022-12-23T23:04:34.651Z,97834.25
2022-12-23T23:07:01.205Z,97836.34
2022-12-23T23:09:27.882Z,97840.50
2022-12-23T23:11:54.652Z,97848.59
2022-12-23T23:14:21.929Z,97859.84
2022-12-23T23:16:48.882Z,97859.59
2022-12-23T23:19:19.185Z,97866.09
2022-12-23T23:21:46.845Z,97863.75
2022-12-23T23:24:13.417Z,97865.09
2022-12-23T23:26:40.513Z,97864.31
2022-12-23T23:29:07.092Z,97878.97
2022-12-23T23:31:42.913Z,97872.94
2022-12-23T23:34:10.668Z,97876.59
2022-12-23T23:36:37.668Z,97880.78
2022-12-23T23:39:04.460Z,97892.28
2022-12-23T23:41:31.235Z,97891.28
2022-12-23T23:43:58.151Z,97897.75
2022-12-23T23:46:24.832Z,97907.94
2022-12-23T23:48:51.500Z,97905.63
2022-12-23T23:51:18.122Z,97909.31
2022-12-23T23:53:44.836Z,97908.47
2022-12-23T23:56:11.415Z,97904.31
2022-12-23T23:58:38.324Z,97897.03
